sensor_id;sensor_type;location;lat;lon;timestamp;P1;durP1;ratioP1;P2;durP2;ratioP2
70455;SDS011;57916;51.996;5.180;2023-07-02T00:00:00;26.73;;;6.60;;
70455;SDS011;57916;51.996;5.180;2023-07-02T00:02:34;23.10;;;6.95;;
70455;SDS011;57916;51.996;5.180;2023-07-02T00:05:02;18.77;;;6.22;;
70455;SDS011;57916;51.996;5.180;2023-07-02T00:07:29;17.40;;;5.57;;
70455;SDS011;57916;51.996;5.180;2023-07-02T00:09:56;18.75;;;5.75;;
70455;SDS011;57916;51.996;5.180;2023-07-02T00:12:23;17.17;;;5.75;;
70455;SDS011;57916;51.996;5.180;2023-07-02T00:14:50;22.30;;;6.32;;
70455;SDS011;57916;51.996;5.180;2023-07-02T00:17:20;20.67;;;5.55;;
70455;SDS011;57916;51.996;5.180;2023-07-02T00:19:48;19.15;;;5.53;;
70455;SDS011;57916;51.996;5.180;2023-07-02T00:22:19;16.85;;;5.38;;
70455;SDS011;57916;51.996;5.180;2023-07-02T00:24:46;12.03;;;5.37;;
70455;SDS011;57916;51.996;5.180;2023-07-02T00:27:14;10.27;;;4.75;;
70455;SDS011;57916;51.996;5.180;2023-07-02T00:29:41;12.65;;;5.50;;
70455;SDS011;57916;51.996;5.180;2023-07-02T00:32:08;15.50;;;5.10;;
70455;SDS011;57916;51.996;5.180;2023-07-02T00:34:35;12.43;;;5.00;;
70455;SDS011;57916;51.996;5.180;2023-07-02T00:37:02;14.02;;;5.22;;
70455;SDS011;57916;51.996;5.180;2023-07-02T00:39:29;16.38;;;4.93;;
70455;SDS011;57916;51.996;5.180;2023-07-02T00:42:00;18.23;;;5.10;;
70455;SDS011;57916;51.996;5.180;2023-07-02T00:44:30;15.55;;;5.40;;
70455;SDS011;57916;51.996;5.180;2023-07-02T00:46:58;15.02;;;4.57;;
70455;SDS011;57916;51.996;5.180;2023-07-02T00:49:25;15.65;;;4.72;;
70455;SDS011;57916;51.996;5.180;2023-07-02T00:51:52;17.40;;;4.90;;
70455;SDS011;57916;51.996;5.180;2023-07-02T00:54:20;10.20;;;4.60;;
70455;SDS011;57916;51.996;5.180;2023-07-02T00:56:47;17.20;;;4.97;;
70455;SDS011;57916;51.996;5.180;2023-07-02T00:59:14;12.20;;;4.60;;
70455;SDS011;57916;51.996;5.180;2023-07-02T01:01:41;11.75;;;4.70;;
70455;SDS011;57916;51.996;5.180;2023-07-02T01:04:08;16.25;;;5.10;;
70455;SDS011;57916;51.996;5.180;2023-07-02T01:06:36;12.13;;;5.05;;
70455;SDS011;57916;51.996;5.180;2023-07-02T01:09:08;15.40;;;5.15;;
70455;SDS011;57916;51.996;5.180;2023-07-02T01:11:40;14.10;;;5.47;;
70455;SDS011;57916;51.996;5.180;2023-07-02T01:14:30;14.05;;;5.30;;
70455;SDS011;57916;51.996;5.180;2023-07-02T01:17:01;15.97;;;5.93;;
70455;SDS011;57916;51.996;5.180;2023-07-02T01:22:08;14.03;;;5.77;;
70455;SDS011;57916;51.996;5.180;2023-07-02T01:24:36;20.27;;;6.43;;
70455;SDS011;57916;51.996;5.180;2023-07-02T01:27:05;15.15;;;6.05;;
70455;SDS011;57916;51.996;5.180;2023-07-02T01:29:32;20.27;;;5.90;;
70455;SDS011;57916;51.996;5.180;2023-07-02T01:32:03;16.20;;;6.20;;
70455;SDS011;57916;51.996;5.180;2023-07-02T01:34:30;22.52;;;6.25;;
70455;SDS011;57916;51.996;5.180;2023-07-02T01:36:57;19.10;;;5.90;;
70455;SDS011;57916;51.996;5.180;2023-07-02T01:39:24;12.88;;;5.45;;
70455;SDS011;57916;51.996;5.180;2023-07-02T01:41:52;13.30;;;5.63;;
70455;SDS011;57916;51.996;5.180;2023-07-02T01:44:21;19.27;;;5.90;;
70455;SDS011;57916;51.996;5.180;2023-07-02T01:46:48;18.10;;;6.00;;
70455;SDS011;57916;51.996;5.180;2023-07-02T01:49:16;17.55;;;6.20;;
70455;SDS011;57916;51.996;5.180;2023-07-02T01:51:50;18.27;;;5.80;;
70455;SDS011;57916;51.996;5.180;2023-07-02T01:54:18;14.68;;;5.75;;
70455;SDS011;57916;51.996;5.180;2023-07-02T01:56:46;13.13;;;5.60;;
70455;SDS011;57916;51.996;5.180;2023-07-02T01:59:13;16.55;;;5.90;;
70455;SDS011;57916;51.996;5.180;2023-07-02T02:01:41;19.90;;;6.00;;
70455;SDS011;57916;51.996;5.180;2023-07-02T02:04:08;18.17;;;5.85;;
70455;SDS011;57916;51.996;5.180;2023-07-02T02:06:36;15.20;;;5.70;;
70455;SDS011;57916;51.996;5.180;2023-07-02T02:09:04;15.18;;;5.70;;
70455;SDS011;57916;51.996;5.180;2023-07-02T02:11:32;16.67;;;5.53;;
70455;SDS011;57916;51.996;5.180;2023-07-02T02:14:00;18.47;;;5.50;;
70455;SDS011;57916;51.996;5.180;2023-07-02T02:16:30;19.50;;;5.97;;
70455;SDS011;57916;51.996;5.180;2023-07-02T02:18:57;20.13;;;5.90;;
70455;SDS011;57916;51.996;5.180;2023-07-02T02:21:24;19.33;;;5.63;;
70455;SDS011;57916;51.996;5.180;2023-07-02T02:23:51;18.67;;;5.78;;
70455;SDS011;57916;51.996;5.180;2023-07-02T02:26:18;23.67;;;5.97;;
70455;SDS011;57916;51.996;5.180;2023-07-02T02:28:48;18.47;;;5.73;;
70455;SDS011;57916;51.996;5.180;2023-07-02T02:31:15;19.08;;;6.13;;
70455;SDS011;57916;51.996;5.180;2023-07-02T02:33:43;21.58;;;6.20;;
70455;SDS011;57916;51.996;5.180;2023-07-02T02:36:10;19.65;;;6.25;;
70455;SDS011;57916;51.996;5.180;2023-07-02T02:38:38;20.52;;;6.05;;
70455;SDS011;57916;51.996;5.180;2023-07-02T02:41:05;23.73;;;6.78;;
70455;SDS011;57916;51.996;5.180;2023-07-02T02:43:41;16.30;;;5.90;;
70455;SDS011;57916;51.996;5.180;2023-07-02T02:46:11;19.98;;;6.22;;
70455;SDS011;57916;51.996;5.180;2023-07-02T02:48:39;18.73;;;5.90;;
70455;SDS011;57916;51.996;5.180;2023-07-02T02:51:06;23.15;;;6.55;;
70455;SDS011;57916;51.996;5.180;2023-07-02T02:53:33;18.03;;;6.37;;
70455;SDS011;57916;51.996;5.180;2023-07-02T02:56:00;20.08;;;6.28;;
70455;SDS011;57916;51.996;5.180;2023-07-02T02:58:27;21.35;;;6.75;;
70455;SDS011;57916;51.996;5.180;2023-07-02T03:00:54;21.67;;;6.70;;
70455;SDS011;57916;51.996;5.180;2023-07-02T03:03:22;20.58;;;6.70;;
70455;SDS011;57916;51.996;5.180;2023-07-02T03:05:51;20.58;;;6.38;;
70455;SDS011;57916;51.996;5.180;2023-07-02T03:08:18;21.25;;;6.22;;
70455;SDS011;57916;51.996;5.180;2023-07-02T03:10:44;19.30;;;6.05;;
70455;SDS011;57916;51.996;5.180;2023-07-02T03:13:12;20.80;;;6.47;;
70455;SDS011;57916;51.996;5.180;2023-07-02T03:15:39;19.67;;;6.60;;
70455;SDS011;57916;51.996;5.180;2023-07-02T03:18:06;22.80;;;6.67;;
70455;SDS011;57916;51.996;5.180;2023-07-02T03:20:33;18.63;;;6.20;;
70455;SDS011;57916;51.996;5.180;2023-07-02T03:23:01;22.00;;;6.90;;
70455;SDS011;57916;51.996;5.180;2023-07-02T03:25:28;28.10;;;6.30;;
70455;SDS011;57916;51.996;5.180;2023-07-02T03:27:55;24.38;;;6.43;;
70455;SDS011;57916;51.996;5.180;2023-07-02T03:30:22;22.58;;;6.65;;
70455;SDS011;57916;51.996;5.180;2023-07-02T03:32:48;20.17;;;7.03;;
70455;SDS011;57916;51.996;5.180;2023-07-02T03:35:15;22.02;;;7.35;;
70455;SDS011;57916;51.996;5.180;2023-07-02T03:37:42;24.13;;;6.50;;
70455;SDS011;57916;51.996;5.180;2023-07-02T03:40:10;20.50;;;6.78;;
70455;SDS011;57916;51.996;5.180;2023-07-02T03:42:37;24.40;;;7.05;;
70455;SDS011;57916;51.996;5.180;2023-07-02T03:45:04;23.65;;;6.68;;
70455;SDS011;57916;51.996;5.180;2023-07-02T03:47:31;16.80;;;6.25;;
70455;SDS011;57916;51.996;5.180;2023-07-02T03:49:59;23.20;;;7.72;;
70455;SDS011;57916;51.996;5.180;2023-07-02T03:52:26;20.85;;;6.15;;
70455;SDS011;57916;51.996;5.180;2023-07-02T03:54:53;22.17;;;6.47;;
70455;SDS011;57916;51.996;5.180;2023-07-02T03:57:20;24.33;;;7.50;;
70455;SDS011;57916;51.996;5.180;2023-07-02T03:59:47;24.40;;;6.70;;
70455;SDS011;57916;51.996;5.180;2023-07-02T04:02:15;26.63;;;7.00;;
70455;SDS011;57916;51.996;5.180;2023-07-02T04:04:42;23.92;;;7.47;;
70455;SDS011;57916;51.996;5.180;2023-07-02T04:07:09;28.30;;;7.18;;
70455;SDS011;57916;51.996;5.180;2023-07-02T04:09:36;30.65;;;7.30;;
70455;SDS011;57916;51.996;5.180;2023-07-02T04:12:03;26.13;;;7.22;;
70455;SDS011;57916;51.996;5.180;2023-07-02T04:14:30;22.60;;;7.30;;
70455;SDS011;57916;51.996;5.180;2023-07-02T04:16:57;21.75;;;7.13;;
70455;SDS011;57916;51.996;5.180;2023-07-02T04:19:24;26.90;;;7.70;;
70455;SDS011;57916;51.996;5.180;2023-07-02T04:21:51;24.20;;;6.78;;
70455;SDS011;57916;51.996;5.180;2023-07-02T04:24:18;26.20;;;7.15;;
70455;SDS011;57916;51.996;5.180;2023-07-02T04:26:46;24.90;;;6.85;;
70455;SDS011;57916;51.996;5.180;2023-07-02T04:29:33;31.67;;;7.37;;
70455;SDS011;57916;51.996;5.180;2023-07-02T04:32:00;21.83;;;6.60;;
70455;SDS011;57916;51.996;5.180;2023-07-02T04:34:27;23.00;;;7.27;;
70455;SDS011;57916;51.996;5.180;2023-07-02T04:36:53;24.85;;;7.15;;
70455;SDS011;57916;51.996;5.180;2023-07-02T04:39:20;21.67;;;7.00;;
70455;SDS011;57916;51.996;5.180;2023-07-02T04:41:48;26.40;;;7.57;;
70455;SDS011;57916;51.996;5.180;2023-07-02T04:44:18;28.52;;;7.00;;
70455;SDS011;57916;51.996;5.180;2023-07-02T04:46:48;26.45;;;7.10;;
70455;SDS011;57916;51.996;5.180;2023-07-02T04:49:15;29.98;;;7.63;;
70455;SDS011;57916;51.996;5.180;2023-07-02T04:51:42;24.50;;;7.07;;
70455;SDS011;57916;51.996;5.180;2023-07-02T04:54:09;26.48;;;7.55;;
70455;SDS011;57916;51.996;5.180;2023-07-02T04:56:36;25.02;;;6.85;;
70455;SDS011;57916;51.996;5.180;2023-07-02T04:59:03;25.40;;;6.82;;
70455;SDS011;57916;51.996;5.180;2023-07-02T05:01:30;27.15;;;7.38;;
70455;SDS011;57916;51.996;5.180;2023-07-02T05:03:57;26.88;;;6.78;;
70455;SDS011;57916;51.996;5.180;2023-07-02T05:06:24;23.13;;;7.03;;
70455;SDS011;57916;51.996;5.180;2023-07-02T05:08:51;24.20;;;7.30;;
70455;SDS011;57916;51.996;5.180;2023-07-02T05:11:19;28.70;;;7.40;;
70455;SDS011;57916;51.996;5.180;2023-07-02T05:13:46;24.45;;;6.70;;
70455;SDS011;57916;51.996;5.180;2023-07-02T05:16:13;24.95;;;6.15;;
70455;SDS011;57916;51.996;5.180;2023-07-02T05:18:41;29.92;;;7.07;;
70455;SDS011;57916;51.996;5.180;2023-07-02T05:21:08;23.83;;;7.03;;
70455;SDS011;57916;51.996;5.180;2023-07-02T05:23:35;22.17;;;6.40;;
70455;SDS011;57916;51.996;5.180;2023-07-02T05:26:02;21.50;;;6.80;;
70455;SDS011;57916;51.996;5.180;2023-07-02T05:28:29;21.27;;;6.38;;
70455;SDS011;57916;51.996;5.180;2023-07-02T05:30:56;24.42;;;6.78;;
70455;SDS011;57916;51.996;5.180;2023-07-02T05:33:23;20.67;;;6.65;;
70455;SDS011;57916;51.996;5.180;2023-07-02T05:35:50;24.08;;;6.20;;
70455;SDS011;57916;51.996;5.180;2023-07-02T05:38:17;17.75;;;5.88;;
70455;SDS011;57916;51.996;5.180;2023-07-02T05:40:45;24.47;;;6.40;;
70455;SDS011;57916;51.996;5.180;2023-07-02T05:43:13;28.50;;;6.18;;
70455;SDS011;57916;51.996;5.180;2023-07-02T05:45:40;24.25;;;6.60;;
70455;SDS011;57916;51.996;5.180;2023-07-02T05:48:07;24.85;;;6.80;;
70455;SDS011;57916;51.996;5.180;2023-07-02T05:50:34;21.83;;;6.20;;
70455;SDS011;57916;51.996;5.180;2023-07-02T05:53:01;26.00;;;6.28;;
70455;SDS011;57916;51.996;5.180;2023-07-02T05:55:28;20.20;;;5.95;;
70455;SDS011;57916;51.996;5.180;2023-07-02T05:57:55;21.75;;;6.55;;
70455;SDS011;57916;51.996;5.180;2023-07-02T06:00:23;25.35;;;6.35;;
70455;SDS011;57916;51.996;5.180;2023-07-02T06:02:51;18.80;;;5.90;;
70455;SDS011;57916;51.996;5.180;2023-07-02T06:05:18;18.92;;;6.00;;
70455;SDS011;57916;51.996;5.180;2023-07-02T06:07:45;19.25;;;5.88;;
70455;SDS011;57916;51.996;5.180;2023-07-02T06:10:12;20.33;;;5.88;;
70455;SDS011;57916;51.996;5.180;2023-07-02T06:12:39;22.17;;;5.82;;
70455;SDS011;57916;51.996;5.180;2023-07-02T06:15:06;20.67;;;6.25;;
70455;SDS011;57916;51.996;5.180;2023-07-02T06:17:33;21.65;;;5.50;;
70455;SDS011;57916;51.996;5.180;2023-07-02T06:20:03;18.15;;;5.65;;
70455;SDS011;57916;51.996;5.180;2023-07-02T06:22:33;18.23;;;5.57;;
70455;SDS011;57916;51.996;5.180;2023-07-02T06:25:00;23.77;;;6.40;;
70455;SDS011;57916;51.996;5.180;2023-07-02T06:27:31;18.85;;;5.93;;
70455;SDS011;57916;51.996;5.180;2023-07-02T06:29:58;18.57;;;5.30;;
70455;SDS011;57916;51.996;5.180;2023-07-02T06:32:25;18.95;;;5.55;;
70455;SDS011;57916;51.996;5.180;2023-07-02T06:34:52;20.70;;;5.95;;
70455;SDS011;57916;51.996;5.180;2023-07-02T06:37:19;25.98;;;5.72;;
70455;SDS011;57916;51.996;5.180;2023-07-02T06:39:45;18.93;;;5.10;;
70455;SDS011;57916;51.996;5.180;2023-07-02T06:42:12;22.77;;;5.50;;
70455;SDS011;57916;51.996;5.180;2023-07-02T06:44:40;15.27;;;4.95;;
70455;SDS011;57916;51.996;5.180;2023-07-02T06:47:07;19.90;;;5.03;;
70455;SDS011;57916;51.996;5.180;2023-07-02T06:49:36;14.82;;;4.63;;
70455;SDS011;57916;51.996;5.180;2023-07-02T06:52:03;23.65;;;5.22;;
70455;SDS011;57916;51.996;5.180;2023-07-02T06:54:30;16.23;;;5.00;;
70455;SDS011;57916;51.996;5.180;2023-07-02T06:56:57;16.98;;;4.70;;
70455;SDS011;57916;51.996;5.180;2023-07-02T06:59:24;24.65;;;5.43;;
70455;SDS011;57916;51.996;5.180;2023-07-02T07:01:51;12.45;;;4.97;;
70455;SDS011;57916;51.996;5.180;2023-07-02T07:04:18;17.98;;;5.20;;
70455;SDS011;57916;51.996;5.180;2023-07-02T07:06:45;13.85;;;4.65;;
70455;SDS011;57916;51.996;5.180;2023-07-02T07:09:12;17.23;;;4.93;;
70455;SDS011;57916;51.996;5.180;2023-07-02T07:11:39;23.13;;;5.03;;
70455;SDS011;57916;51.996;5.180;2023-07-02T07:14:06;20.85;;;4.85;;
70455;SDS011;57916;51.996;5.180;2023-07-02T07:16:33;14.45;;;4.70;;
70455;SDS011;57916;51.996;5.180;2023-07-02T07:19:00;19.73;;;5.30;;
70455;SDS011;57916;51.996;5.180;2023-07-02T07:21:27;16.73;;;4.50;;
70455;SDS011;57916;51.996;5.180;2023-07-02T07:23:54;17.40;;;5.05;;
70455;SDS011;57916;51.996;5.180;2023-07-02T07:26:21;13.10;;;4.78;;
70455;SDS011;57916;51.996;5.180;2023-07-02T07:28:48;14.95;;;4.05;;
70455;SDS011;57916;51.996;5.180;2023-07-02T07:31:15;12.37;;;4.43;;
70455;SDS011;57916;51.996;5.180;2023-07-02T07:33:42;19.35;;;4.70;;
70455;SDS011;57916;51.996;5.180;2023-07-02T07:36:10;11.73;;;4.30;;
70455;SDS011;57916;51.996;5.180;2023-07-02T07:38:37;14.55;;;4.38;;
70455;SDS011;57916;51.996;5.180;2023-07-02T07:41:04;9.75;;;3.88;;
70455;SDS011;57916;51.996;5.180;2023-07-02T07:43:31;14.83;;;4.17;;
70455;SDS011;57916;51.996;5.180;2023-07-02T07:45:58;13.38;;;4.10;;
70455;SDS011;57916;51.996;5.180;2023-07-02T07:48:25;11.23;;;4.20;;
70455;SDS011;57916;51.996;5.180;2023-07-02T07:50:52;13.10;;;4.30;;
70455;SDS011;57916;51.996;5.180;2023-07-02T07:53:19;14.38;;;3.80;;
70455;SDS011;57916;51.996;5.180;2023-07-02T07:55:46;12.93;;;4.07;;
70455;SDS011;57916;51.996;5.180;2023-07-02T07:58:13;12.43;;;3.90;;
70455;SDS011;57916;51.996;5.180;2023-07-02T08:00:40;10.50;;;3.90;;
70455;SDS011;57916;51.996;5.180;2023-07-02T08:03:07;14.98;;;3.88;;
70455;SDS011;57916;51.996;5.180;2023-07-02T08:05:36;15.75;;;4.22;;
70455;SDS011;57916;51.996;5.180;2023-07-02T08:08:03;10.05;;;4.55;;
70455;SDS011;57916;51.996;5.180;2023-07-02T08:10:30;11.40;;;4.13;;
70455;SDS011;57916;51.996;5.180;2023-07-02T08:12:57;9.45;;;4.00;;
70455;SDS011;57916;51.996;5.180;2023-07-02T08:15:24;16.38;;;4.68;;
70455;SDS011;57916;51.996;5.180;2023-07-02T08:17:51;13.80;;;4.10;;
70455;SDS011;57916;51.996;5.180;2023-07-02T08:20:21;11.32;;;4.30;;
70455;SDS011;57916;51.996;5.180;2023-07-02T08:22:48;14.85;;;4.00;;
70455;SDS011;57916;51.996;5.180;2023-07-02T08:25:15;16.10;;;4.22;;
70455;SDS011;57916;51.996;5.180;2023-07-02T08:27:44;9.30;;;3.90;;
70455;SDS011;57916;51.996;5.180;2023-07-02T08:30:11;15.70;;;4.17;;
70455;SDS011;57916;51.996;5.180;2023-07-02T08:32:38;12.93;;;3.90;;
70455;SDS011;57916;51.996;5.180;2023-07-02T08:35:05;9.80;;;3.80;;
70455;SDS011;57916;51.996;5.180;2023-07-02T08:37:32;12.63;;;3.88;;
70455;SDS011;57916;51.996;5.180;2023-07-02T08:39:59;10.63;;;3.67;;
70455;SDS011;57916;51.996;5.180;2023-07-02T08:42:26;7.75;;;3.33;;
70455;SDS011;57916;51.996;5.180;2023-07-02T08:44:56;11.87;;;3.63;;
70455;SDS011;57916;51.996;5.180;2023-07-02T08:47:25;12.80;;;3.60;;
70455;SDS011;57916;51.996;5.180;2023-07-02T08:49:52;8.82;;;3.55;;
70455;SDS011;57916;51.996;5.180;2023-07-02T08:52:19;6.63;;;3.40;;
70455;SDS011;57916;51.996;5.180;2023-07-02T08:54:46;11.48;;;3.40;;
70455;SDS011;57916;51.996;5.180;2023-07-02T08:57:13;11.00;;;3.53;;
70455;SDS011;57916;51.996;5.180;2023-07-02T08:59:40;8.05;;;3.00;;
70455;SDS011;57916;51.996;5.180;2023-07-02T09:02:07;8.38;;;3.20;;
70455;SDS011;57916;51.996;5.180;2023-07-02T09:04:34;7.75;;;3.08;;
70455;SDS011;57916;51.996;5.180;2023-07-02T09:07:05;8.85;;;2.92;;
70455;SDS011;57916;51.996;5.180;2023-07-02T09:09:45;8.25;;;2.95;;
70455;SDS011;57916;51.996;5.180;2023-07-02T09:12:29;8.90;;;3.00;;
70455;SDS011;57916;51.996;5.180;2023-07-02T09:14:59;9.80;;;3.20;;
70455;SDS011;57916;51.996;5.180;2023-07-02T09:17:46;7.30;;;2.40;;
70455;SDS011;57916;51.996;5.180;2023-07-02T09:20:13;9.38;;;2.60;;
70455;SDS011;57916;51.996;5.180;2023-07-02T09:22:40;6.25;;;2.88;;
70455;SDS011;57916;51.996;5.180;2023-07-02T09:25:07;7.65;;;2.78;;
70455;SDS011;57916;51.996;5.180;2023-07-02T09:27:36;8.38;;;2.78;;
70455;SDS011;57916;51.996;5.180;2023-07-02T09:30:06;6.63;;;2.70;;
70455;SDS011;57916;51.996;5.180;2023-07-02T09:32:36;9.60;;;3.10;;
70455;SDS011;57916;51.996;5.180;2023-07-02T09:35:04;8.27;;;2.70;;
70455;SDS011;57916;51.996;5.180;2023-07-02T09:37:32;8.53;;;2.77;;
70455;SDS011;57916;51.996;5.180;2023-07-02T09:39:59;9.77;;;2.90;;
70455;SDS011;57916;51.996;5.180;2023-07-02T09:42:28;7.57;;;2.40;;
70455;SDS011;57916;51.996;5.180;2023-07-02T09:44:55;8.57;;;2.78;;
70455;SDS011;57916;51.996;5.180;2023-07-02T09:47:26;6.03;;;2.72;;
70455;SDS011;57916;51.996;5.180;2023-07-02T09:50:01;6.05;;;2.53;;
70455;SDS011;57916;51.996;5.180;2023-07-02T09:52:32;8.18;;;3.08;;
70455;SDS011;57916;51.996;5.180;2023-07-02T09:55:01;3.67;;;2.53;;
70455;SDS011;57916;51.996;5.180;2023-07-02T09:57:28;8.45;;;2.90;;
70455;SDS011;57916;51.996;5.180;2023-07-02T10:00:01;6.55;;;2.60;;
70455;SDS011;57916;51.996;5.180;2023-07-02T10:02:31;6.40;;;2.70;;
70455;SDS011;57916;51.996;5.180;2023-07-02T10:04:58;7.53;;;2.50;;
70455;SDS011;57916;51.996;5.180;2023-07-02T10:07:26;3.22;;;2.50;;
70455;SDS011;57916;51.996;5.180;2023-07-02T10:09:54;10.32;;;2.90;;
70455;SDS011;57916;51.996;5.180;2023-07-02T10:12:22;6.30;;;2.20;;
70455;SDS011;57916;51.996;5.180;2023-07-02T10:14:54;3.90;;;2.40;;
70455;SDS011;57916;51.996;5.180;2023-07-02T10:17:29;7.45;;;2.30;;
70455;SDS011;57916;51.996;5.180;2023-07-02T10:19:59;5.60;;;2.07;;
70455;SDS011;57916;51.996;5.180;2023-07-02T10:22:43;5.70;;;2.10;;
70455;SDS011;57916;51.996;5.180;2023-07-02T10:25:12;4.97;;;1.92;;
70455;SDS011;57916;51.996;5.180;2023-07-02T10:27:49;10.23;;;2.60;;
70455;SDS011;57916;51.996;5.180;2023-07-02T10:30:16;6.43;;;2.10;;
70455;SDS011;57916;51.996;5.180;2023-07-02T10:32:43;5.97;;;2.10;;
70455;SDS011;57916;51.996;5.180;2023-07-02T10:35:17;3.35;;;2.03;;
70455;SDS011;57916;51.996;5.180;2023-07-02T10:37:44;4.88;;;2.13;;
70455;SDS011;57916;51.996;5.180;2023-07-02T10:40:12;5.57;;;2.00;;
70455;SDS011;57916;51.996;5.180;2023-07-02T10:45:13;5.43;;;2.45;;
70455;SDS011;57916;51.996;5.180;2023-07-02T10:47:40;5.45;;;2.45;;
70455;SDS011;57916;51.996;5.180;2023-07-02T10:52:41;6.07;;;2.50;;
70455;SDS011;57916;51.996;5.180;2023-07-02T10:55:08;5.28;;;2.63;;
70455;SDS011;57916;51.996;5.180;2023-07-02T10:57:35;6.00;;;2.80;;
70455;SDS011;57916;51.996;5.180;2023-07-02T11:00:03;6.05;;;2.40;;
70455;SDS011;57916;51.996;5.180;2023-07-02T11:02:37;7.43;;;2.90;;
70455;SDS011;57916;51.996;5.180;2023-07-02T11:05:05;5.30;;;2.58;;
70455;SDS011;57916;51.996;5.180;2023-07-02T11:07:33;3.58;;;2.50;;
70455;SDS011;57916;51.996;5.180;2023-07-02T11:10:00;3.60;;;2.70;;
70455;SDS011;57916;51.996;5.180;2023-07-02T11:12:30;7.28;;;2.50;;
70455;SDS011;57916;51.996;5.180;2023-07-02T11:15:10;4.90;;;2.50;;
70455;SDS011;57916;51.996;5.180;2023-07-02T11:17:38;7.03;;;3.00;;
70455;SDS011;57916;51.996;5.180;2023-07-02T11:20:08;3.15;;;2.40;;
70455;SDS011;57916;51.996;5.180;2023-07-02T11:22:37;8.43;;;2.70;;
70455;SDS011;57916;51.996;5.180;2023-07-02T11:25:12;5.13;;;2.50;;
70455;SDS011;57916;51.996;5.180;2023-07-02T11:27:40;5.75;;;2.65;;
70455;SDS011;57916;51.996;5.180;2023-07-02T11:30:08;8.13;;;2.88;;
70455;SDS011;57916;51.996;5.180;2023-07-02T11:32:52;5.72;;;2.50;;
70455;SDS011;57916;51.996;5.180;2023-07-02T11:35:21;7.35;;;2.90;;
70455;SDS011;57916;51.996;5.180;2023-07-02T11:37:59;7.28;;;2.83;;
70455;SDS011;57916;51.996;5.180;2023-07-02T11:40:26;5.57;;;2.67;;
70455;SDS011;57916;51.996;5.180;2023-07-02T11:42:53;5.35;;;2.70;;
70455;SDS011;57916;51.996;5.180;2023-07-02T11:45:20;3.37;;;2.60;;
70455;SDS011;57916;51.996;5.180;2023-07-02T11:47:47;6.07;;;2.95;;
70455;SDS011;57916;51.996;5.180;2023-07-02T11:50:14;5.97;;;2.63;;
70455;SDS011;57916;51.996;5.180;2023-07-02T11:52:52;6.82;;;2.80;;
70455;SDS011;57916;51.996;5.180;2023-07-02T11:55:19;7.72;;;3.00;;
70455;SDS011;57916;51.996;5.180;2023-07-02T11:57:47;4.18;;;2.80;;
70455;SDS011;57916;51.996;5.180;2023-07-02T12:00:16;6.27;;;2.50;;
70455;SDS011;57916;51.996;5.180;2023-07-02T12:02:43;6.13;;;2.58;;
70455;SDS011;57916;51.996;5.180;2023-07-02T12:05:10;6.20;;;2.50;;
70455;SDS011;57916;51.996;5.180;2023-07-02T12:07:38;7.57;;;3.00;;
70455;SDS011;57916;51.996;5.180;2023-07-02T12:10:06;9.75;;;2.88;;
70455;SDS011;57916;51.996;5.180;2023-07-02T12:12:34;6.25;;;2.97;;
70455;SDS011;57916;51.996;5.180;2023-07-02T12:15:01;7.35;;;3.10;;
70455;SDS011;57916;51.996;5.180;2023-07-02T12:17:28;5.85;;;2.83;;
70455;SDS011;57916;51.996;5.180;2023-07-02T12:19:56;4.85;;;3.00;;
70455;SDS011;57916;51.996;5.180;2023-07-02T12:22:24;4.63;;;2.55;;
70455;SDS011;57916;51.996;5.180;2023-07-02T12:24:51;5.63;;;2.80;;
70455;SDS011;57916;51.996;5.180;2023-07-02T12:27:20;5.13;;;2.38;;
70455;SDS011;57916;51.996;5.180;2023-07-02T12:29:46;7.82;;;3.30;;
70455;SDS011;57916;51.996;5.180;2023-07-02T12:32:15;6.18;;;2.53;;
70455;SDS011;57916;51.996;5.180;2023-07-02T12:34:42;6.63;;;2.77;;
70455;SDS011;57916;51.996;5.180;2023-07-02T12:37:09;4.70;;;2.65;;
70455;SDS011;57916;51.996;5.180;2023-07-02T12:39:36;5.85;;;3.22;;
70455;SDS011;57916;51.996;5.180;2023-07-02T12:42:03;6.70;;;3.10;;
70455;SDS011;57916;51.996;5.180;2023-07-02T12:44:30;8.07;;;3.08;;
70455;SDS011;57916;51.996;5.180;2023-07-02T12:46:57;5.25;;;3.15;;
70455;SDS011;57916;51.996;5.180;2023-07-02T12:49:24;9.48;;;3.22;;
70455;SDS011;57916;51.996;5.180;2023-07-02T12:51:51;4.82;;;2.90;;
70455;SDS011;57916;51.996;5.180;2023-07-02T12:54:18;9.50;;;3.08;;
70455;SDS011;57916;51.996;5.180;2023-07-02T12:56:45;8.52;;;3.00;;
70455;SDS011;57916;51.996;5.180;2023-07-02T12:59:13;8.18;;;3.03;;
70455;SDS011;57916;51.996;5.180;2023-07-02T13:01:40;8.53;;;3.33;;
70455;SDS011;57916;51.996;5.180;2023-07-02T13:04:07;8.10;;;3.15;;
70455;SDS011;57916;51.996;5.180;2023-07-02T13:06:35;5.53;;;3.17;;
70455;SDS011;57916;51.996;5.180;2023-07-02T13:09:07;7.45;;;3.35;;
70455;SDS011;57916;51.996;5.180;2023-07-02T13:11:34;10.23;;;3.65;;
70455;SDS011;57916;51.996;5.180;2023-07-02T13:14:01;5.07;;;3.27;;
70455;SDS011;57916;51.996;5.180;2023-07-02T13:16:28;6.57;;;3.10;;
70455;SDS011;57916;51.996;5.180;2023-07-02T13:18:56;8.98;;;3.10;;
70455;SDS011;57916;51.996;5.180;2023-07-02T13:21:23;11.57;;;3.42;;
70455;SDS011;57916;51.996;5.180;2023-07-02T13:23:50;6.82;;;3.22;;
70455;SDS011;57916;51.996;5.180;2023-07-02T13:26:17;7.18;;;3.47;;
70455;SDS011;57916;51.996;5.180;2023-07-02T13:28:44;8.32;;;3.58;;
70455;SDS011;57916;51.996;5.180;2023-07-02T13:31:14;11.45;;;3.70;;
70455;SDS011;57916;51.996;5.180;2023-07-02T13:33:42;7.18;;;3.50;;
70455;SDS011;57916;51.996;5.180;2023-07-02T13:36:09;9.82;;;3.40;;
70455;SDS011;57916;51.996;5.180;2023-07-02T13:38:37;10.48;;;3.08;;
70455;SDS011;57916;51.996;5.180;2023-07-02T13:41:04;8.98;;;3.58;;
70455;SDS011;57916;51.996;5.180;2023-07-02T13:43:31;7.85;;;3.10;;
70455;SDS011;57916;51.996;5.180;2023-07-02T13:45:58;9.18;;;3.40;;
70455;SDS011;57916;51.996;5.180;2023-07-02T13:48:25;7.63;;;3.30;;
70455;SDS011;57916;51.996;5.180;2023-07-02T13:50:55;8.50;;;3.70;;
70455;SDS011;57916;51.996;5.180;2023-07-02T13:53:22;7.65;;;3.17;;
70455;SDS011;57916;51.996;5.180;2023-07-02T13:55:49;8.82;;;3.45;;
70455;SDS011;57916;51.996;5.180;2023-07-02T13:58:16;7.17;;;3.07;;
70455;SDS011;57916;51.996;5.180;2023-07-02T14:00:55;13.47;;;4.07;;
70455;SDS011;57916;51.996;5.180;2023-07-02T14:03:23;8.00;;;3.50;;
70455;SDS011;57916;51.996;5.180;2023-07-02T14:05:50;7.38;;;3.60;;
70455;SDS011;57916;51.996;5.180;2023-07-02T14:08:18;11.60;;;3.92;;
70455;SDS011;57916;51.996;5.180;2023-07-02T14:10:45;8.10;;;3.60;;
70455;SDS011;57916;51.996;5.180;2023-07-02T14:13:12;7.88;;;3.47;;
70455;SDS011;57916;51.996;5.180;2023-07-02T14:15:39;9.30;;;3.70;;
70455;SDS011;57916;51.996;5.180;2023-07-02T14:18:06;8.60;;;3.70;;
70455;SDS011;57916;51.996;5.180;2023-07-02T14:20:33;7.88;;;3.53;;
70455;SDS011;57916;51.996;5.180;2023-07-02T14:23:00;6.65;;;3.63;;
70455;SDS011;57916;51.996;5.180;2023-07-02T14:25:27;5.85;;;3.20;;
70455;SDS011;57916;51.996;5.180;2023-07-02T14:28:14;10.73;;;3.50;;
70455;SDS011;57916;51.996;5.180;2023-07-02T14:30:41;7.60;;;3.30;;
70455;SDS011;57916;51.996;5.180;2023-07-02T14:33:09;7.70;;;3.35;;
70455;SDS011;57916;51.996;5.180;2023-07-02T14:35:36;10.60;;;3.55;;
70455;SDS011;57916;51.996;5.180;2023-07-02T14:38:03;7.25;;;3.17;;
70455;SDS011;57916;51.996;5.180;2023-07-02T14:40:31;9.40;;;3.20;;
70455;SDS011;57916;51.996;5.180;2023-07-02T14:42:58;5.97;;;2.88;;
70455;SDS011;57916;51.996;5.180;2023-07-02T14:45:25;5.75;;;2.97;;
70455;SDS011;57916;51.996;5.180;2023-07-02T14:47:52;8.18;;;3.10;;
70455;SDS011;57916;51.996;5.180;2023-07-02T14:50:19;4.80;;;2.90;;
70455;SDS011;57916;51.996;5.180;2023-07-02T14:52:47;8.87;;;3.07;;